Time;durP1;ratioP1;P1;durP2;ratioP2;P2;SDS_P1;SDS_P2;PMS_P1;PMS_P2;Temp;Humidity;BMP_temperature;BMP_pressure;BME280_temperature;BME280_humidity;BME280_pressure;Samples;Min_cycle;Max_cycle;Signal;HPM_P1;HPM_P2
2022/04/29 03:01:25;;;;;;;0.90;0.90;;;12.20;66.20;;;;;;5719528;23;20563;-69
2022/04/29 03:03:51;;;;;;;1.03;0.93;;;12.10;66.20;;;;;;4994033;28;20436;-70
2022/04/29 03:06:19;;;;;;;0.80;0.80;;;12.10;66.20;;;;;;4994366;28;20445;-69
2022/04/29 03:08:45;;;;;;;0.80;0.80;;;12.10;65.90;;;;;;4994361;28;20441;-69
2022/04/29 03:11:13;;;;;;;0.90;0.90;;;12.10;66.20;;;;;;4994163;28;20468;-69
2022/04/29 03:13:39;;;;;;;0.70;0.70;;;12.10;66.40;;;;;;5002781;23;20504;-69
2022/04/29 03:16:06;;;;;;;0.90;0.90;;;12.10;66.30;;;;;;4994512;28;20445;-70
2022/04/29 03:18:34;;;;;;;0.93;0.93;;;12.00;66.30;;;;;;4993871;28;20511;-69
2022/04/29 03:21:01;;;;;;;1.00;1.00;;;12.00;66.50;;;;;;4993897;28;20495;-69
2022/04/29 03:23:27;;;;;;;1.00;0.90;;;12.00;66.50;;;;;;4993740;28;20457;-68
2022/04/29 03:25:54;;;;;;;0.80;0.80;;;11.90;66.50;;;;;;4993982;28;20876;-70
2022/04/29 03:28:21;;;;;;;0.87;0.87;;;11.90;66.50;;;;;;4993666;28;20843;-70
2022/04/29 03:30:48;;;;;;;0.80;0.80;;;11.90;66.40;;;;;;4994185;28;20452;-69
2022/04/29 03:33:15;;;;;;;0.80;0.80;;;11.80;66.20;;;;;;4993812;28;20536;-70
2022/04/29 03:35:45;;;;;;;0.90;0.90;;;11.90;66.60;;;;;;4993961;28;20448;-68
2022/04/29 03:38:12;;;;;;;1.00;1.00;;;11.80;66.50;;;;;;4994018;28;20437;-68
2022/04/29 03:40:39;;;;;;;0.80;0.80;;;11.80;66.70;;;;;;4993833;28;20446;-68
2022/04/29 03:43:06;;;;;;;0.80;0.80;;;11.80;67.00;;;;;;4993631;28;20527;-69
2022/04/29 03:45:33;;;;;;;1.27;0.90;;;11.70;67.20;;;;;;4993718;28;20536;-68
2022/04/29 03:48:00;;;;;;;0.73;0.73;;;11.70;67.30;;;;;;4993828;28;20453;-70
2022/04/29 03:50:28;;;;;;;0.83;0.83;;;11.70;67.30;;;;;;4993792;28;20449;-69
2022/04/29 03:52:57;;;;;;;0.90;0.90;;;11.70;67.30;;;;;;4993252;28;21016;-69
2022/04/29 03:55:26;;;;;;;1.30;1.20;;;11.70;67.30;;;;;;4993687;28;20887;-69
2022/04/29 03:57:54;;;;;;;1.00;1.00;;;11.70;67.40;;;;;;4993672;28;20449;-69
2022/04/29 04:00:21;;;;;;;0.80;0.80;;;11.70;67.50;;;;;;4993709;28;20538;-69
2022/04/29 04:02:49;;;;;;;1.23;1.13;;;11.70;67.60;;;;;;4993445;28;20472;-70
2022/04/29 04:05:17;;;;;;;1.20;1.10;;;11.70;67.80;;;;;;4993331;28;20468;-68
2022/04/29 04:07:45;;;;;;;1.30;1.20;;;11.80;67.80;;;;;;4993497;28;20453;-68
2022/04/29 04:10:14;;;;;;;0.87;0.87;;;11.70;68.00;;;;;;4993192;28;20831;-69
2022/04/29 04:12:42;;;;;;;1.33;1.30;;;11.70;68.00;;;;;;4993117;28;20529;-69
2022/04/29 04:15:10;;;;;;;1.00;1.00;;;11.80;68.00;;;;;;4993213;28;20492;-68
2022/04/29 04:17:37;;;;;;;1.03;1.03;;;11.80;68.00;;;;;;4993632;28;20822;-70
2022/04/29 04:20:05;;;;;;;0.80;0.80;;;11.70;68.00;;;;;;4993653;28;20448;-68
2022/04/29 04:22:32;;;;;;;1.00;1.00;;;11.80;67.90;;;;;;4993212;28;20944;-68
2022/04/29 04:25:00;;;;;;;0.97;0.97;;;11.80;67.90;;;;;;4993449;28;20516;-69
2022/04/29 04:27:28;;;;;;;1.10;1.10;;;11.80;68.00;;;;;;4993336;28;20531;-68
2022/04/29 04:29:54;;;;;;;1.00;1.00;;;11.80;68.00;;;;;;4992960;28;21052;-69
2022/04/29 04:32:21;;;;;;;0.97;0.97;;;11.80;68.10;;;;;;4992991;28;20457;-69
2022/04/29 04:34:51;;;;;;;0.93;0.93;;;11.90;68.00;;;;;;4993143;28;20473;-69
2022/04/29 04:37:18;;;;;;;1.43;1.10;;;11.90;68.10;;;;;;4992926;28;20901;-68
2022/04/29 04:39:44;;;;;;;0.90;0.90;;;11.90;68.10;;;;;;4993201;28;20496;-70
2022/04/29 04:42:11;;;;;;;1.20;1.10;;;12.10;68.20;;;;;;4993255;28;20519;-69
2022/04/29 04:44:39;;;;;;;1.00;1.00;;;12.10;67.80;;;;;;4992947;28;20472;-69
2022/04/29 04:47:06;;;;;;;0.80;0.80;;;12.20;67.80;;;;;;4993221;28;20448;-69
2022/04/29 04:49:33;;;;;;;1.20;1.10;;;12.30;68.00;;;;;;4993250;28;20860;-69
2022/04/29 04:52:00;;;;;;;1.13;1.13;;;12.40;67.90;;;;;;4993405;28;20449;-69
2022/04/29 04:54:27;;;;;;;0.90;0.90;;;12.40;67.50;;;;;;4994872;28;20539;-69
2022/04/29 04:56:53;;;;;;;1.07;1.00;;;12.50;67.30;;;;;;4996960;28;20504;-68
2022/04/29 04:59:20;;;;;;;0.87;0.87;;;12.60;67.60;;;;;;4996873;28;20453;-69
2022/04/29 05:01:48;;;;;;;0.90;0.90;;;12.60;67.40;;;;;;4996489;28;20795;-69
2022/04/29 05:04:15;;;;;;;0.90;0.90;;;12.70;67.30;;;;;;4996775;28;20830;-70
2022/04/29 05:06:41;;;;;;;1.20;1.20;;;12.80;66.80;;;;;;4996853;28;20499;-69
2022/04/29 05:09:09;;;;;;;0.80;0.80;;;13.00;67.20;;;;;;4996457;28;20503;-69
2022/04/29 05:11:36;;;;;;;1.03;1.03;;;13.20;67.20;;;;;;4996463;28;20503;-69
2022/04/29 05:14:03;;;;;;;1.00;1.00;;;13.30;65.60;;;;;;4996081;28;21074;-69
2022/04/29 05:16:29;;;;;;;0.90;0.90;;;13.50;64.90;;;;;;4996318;28;20453;-68
2022/04/29 05:18:57;;;;;;;1.10;1.10;;;13.60;63.60;;;;;;4996385;28;20449;-70
2022/04/29 05:21:24;;;;;;;0.90;0.90;;;13.80;62.20;;;;;;4996366;28;20455;-69
2022/04/29 05:23:51;;;;;;;1.10;0.87;;;13.90;62.50;;;;;;4995927;28;20840;-69
2022/04/29 05:26:17;;;;;;;1.00;1.00;;;14.00;62.70;;;;;;4996129;28;20956;-69
2022/04/29 05:28:44;;;;;;;1.00;1.00;;;14.00;62.40;;;;;;4995906;28;20880;-69
2022/04/29 05:31:11;;;;;;;1.03;1.03;;;14.10;62.20;;;;;;4996560;28;20445;-68
2022/04/29 05:33:39;;;;;;;1.10;1.10;;;14.20;62.30;;;;;;4995500;28;20547;-70
2022/04/29 05:36:09;;;;;;;0.93;0.93;;;14.30;61.60;;;;;;4996255;28;20536;-69
2022/04/29 05:44:05;;;;;;;1.10;1.10;;;14.40;60.40;;;;;;4995925;28;20808;-69
2022/04/29 05:46:32;;;;;;;1.10;1.10;;;14.40;59.90;;;;;;4995861;28;20507;-69
2022/04/29 05:48:59;;;;;;;1.27;1.17;;;14.50;60.50;;;;;;4995733;28;20453;-70
2022/04/29 05:51:27;;;;;;;1.30;1.20;;;14.40;59.40;;;;;;4995773;28;20453;-69
2022/04/29 05:53:54;;;;;;;0.90;0.90;;;14.50;59.80;;;;;;4995564;28;20489;-69
2022/04/29 05:56:20;;;;;;;1.17;1.07;;;14.60;59.60;;;;;;4995426;28;20953;-71
2022/04/29 05:58:47;;;;;;;1.00;1.00;;;14.80;60.60;;;;;;4995613;28;20523;-69
2022/04/29 06:01:14;;;;;;;1.10;1.00;;;14.90;59.50;;;;;;4995369;28;20850;-69
2022/04/29 06:03:40;;;;;;;1.10;1.00;;;14.90;58.70;;;;;;4995929;28;20461;-70
2022/04/29 06:06:07;;;;;;;1.00;1.00;;;14.80;59.50;;;;;;4994436;28;20508;-69
2022/04/29 06:08:35;;;;;;;1.30;1.20;;;14.90;59.30;;;;;;4995537;28;20507;-70
2022/04/29 06:11:02;;;;;;;1.30;1.20;;;15.10;58.60;;;;;;4995490;28;20444;-69
2022/04/29 06:13:28;;;;;;;1.20;1.20;;;15.30;60.20;;;;;;4995219;28;20551;-71
2022/04/29 06:15:55;;;;;;;1.30;1.00;;;15.60;59.20;;;;;;4995356;28;20488;-70
2022/04/29 06:18:21;;;;;;;1.20;1.20;;;15.90;58.70;;;;;;4995338;28;20445;-69
2022/04/29 06:20:48;;;;;;;1.10;1.10;;;15.90;57.10;;;;;;4995230;28;20445;-69
2022/04/29 06:23:15;;;;;;;3.23;1.17;;;16.10;56.30;;;;;;4995344;28;20500;-71
2022/04/29 06:25:43;;;;;;;1.57;1.40;;;16.20;55.80;;;;;;4995458;28;20445;-70
2022/04/29 06:28:09;;;;;;;1.20;1.10;;;16.20;56.20;;;;;;4995122;28;20451;-69
2022/04/29 06:30:37;;;;;;;1.53;1.30;;;16.30;56.20;;;;;;4994840;28;20449;-68
2022/04/29 06:33:05;;;;;;;1.20;1.10;;;16.30;55.30;;;;;;4994996;28;20489;-71
2022/04/29 06:35:33;;;;;;;1.50;1.20;;;16.00;55.50;;;;;;4995704;28;20459;-69
2022/04/29 06:38:00;;;;;;;1.10;1.10;;;16.00;56.10;;;;;;4994943;28;20453;-69
2022/04/29 06:40:26;;;;;;;1.30;1.20;;;16.10;57.50;;;;;;4994992;28;20866;-69
2022/04/29 06:42:54;;;;;;;1.10;1.10;;;16.20;55.40;;;;;;4994452;28;20504;-69
2022/04/29 06:45:21;;;;;;;1.17;1.10;;;16.00;55.70;;;;;;4994981;28;20776;-69
2022/04/29 06:47:48;;;;;;;1.20;1.20;;;15.80;56.10;;;;;;4995156;28;20499;-70
2022/04/29 06:50:14;;;;;;;2.90;1.00;;;15.70;56.00;;;;;;4994646;28;20445;-70
2022/04/29 06:52:41;;;;;;;1.10;1.00;;;15.90;56.30;;;;;;4994414;28;20537;-71
2022/04/29 06:55:09;;;;;;;1.07;1.03;;;15.80;55.10;;;;;;4994205;28;20496;-70
2022/04/29 06:57:35;;;;;;;1.40;1.30;;;15.70;55.60;;;;;;4994469;28;20531;-69
2022/04/29 07:00:05;;;;;;;1.20;1.20;;;15.90;55.40;;;;;;4994467;28;20452;-70
2022/04/29 07:02:33;;;;;;;0.87;0.87;;;15.90;54.10;;;;;;4995193;28;20457;-70
2022/04/29 07:04:59;;;;;;;0.90;0.90;;;16.10;54.90;;;;;;4995152;28;20473;-70
2022/04/29 07:07:28;;;;;;;1.20;1.10;;;16.00;54.00;;;;;;4995250;28;20449;-70
2022/04/29 07:09:55;;;;;;;1.00;1.00;;;16.10;52.30;;;;;;4994858;28;20464;-71
2022/04/29 07:12:22;;;;;;;1.03;1.03;;;16.00;53.90;;;;;;4995253;28;20476;-70
2022/04/29 07:14:51;;;;;;;1.00;1.00;;;15.70;53.40;;;;;;4994543;28;20491;-70
2022/04/29 07:17:20;;;;;;;1.00;1.00;;;15.80;54.20;;;;;;4994552;28;20507;-71
2022/04/29 07:19:47;;;;;;;1.20;1.10;;;15.90;54.50;;;;;;4994850;28;21002;-69
2022/04/29 07:22:13;;;;;;;1.83;1.33;;;15.90;55.30;;;;;;4994534;28;20440;-69
2022/04/29 07:24:40;;;;;;;1.00;1.00;;;15.90;54.70;;;;;;4994644;28;20477;-70
2022/04/29 07:27:07;;;;;;;1.40;1.30;;;15.80;55.40;;;;;;4994441;28;20441;-69
2022/04/29 07:29:33;;;;;;;0.97;0.97;;;15.70;55.70;;;;;;4994888;28;20449;-69
2022/04/29 07:32:00;;;;;;;1.20;1.10;;;15.90;56.50;;;;;;4994853;28;20449;-70
2022/04/29 07:42:38;;;;;;;1.23;1.13;;;16.40;55.00;;;;;;4994637;28;20405;-70
2022/04/29 07:45:05;;;;;;;1.10;1.10;;;16.40;54.20;;;;;;4994273;28;21035;-69
2022/04/29 07:47:32;;;;;;;1.20;1.20;;;16.50;54.10;;;;;;4994887;28;20461;-70
2022/04/29 07:50:00;;;;;;;1.47;1.23;;;16.50;54.00;;;;;;4994822;28;20499;-70
2022/04/29 07:52:27;;;;;;;1.10;1.10;;;16.50;53.40;;;;;;4994976;28;20437;-70
2022/04/29 07:54:53;;;;;;;1.10;1.10;;;16.40;54.70;;;;;;4994134;28;20529;-70
2022/04/29 07:57:20;;;;;;;1.07;1.07;;;16.60;54.40;;;;;;4994114;28;20452;-70
2022/04/29 07:59:47;;;;;;;1.20;1.10;;;16.90;52.70;;;;;;4993665;28;20449;-69
2022/04/29 08:02:13;;;;;;;1.10;1.00;;;16.70;54.00;;;;;;4994193;28;20449;-70
2022/04/29 08:04:40;;;;;;;1.30;1.30;;;16.90;52.40;;;;;;4993327;28;20520;-70
2022/04/29 08:07:10;;;;;;;0.90;0.90;;;16.80;51.80;;;;;;4993444;28;20519;-70
2022/04/29 08:09:36;;;;;;;1.20;1.10;;;16.70;53.00;;;;;;4993299;28;20488;-70
2022/04/29 08:12:04;;;;;;;1.30;1.13;;;16.70;52.80;;;;;;4992977;28;21020;-70
2022/04/29 08:14:31;;;;;;;1.30;1.30;;;16.50;53.40;;;;;;4993113;28;20497;-70
2022/04/29 08:16:58;;;;;;;1.00;1.00;;;16.50;53.50;;;;;;4993037;28;20933;-69
2022/04/29 08:19:25;;;;;;;1.00;1.00;;;16.50;53.50;;;;;;4993611;28;20507;-69
2022/04/29 08:21:52;;;;;;;1.10;1.10;;;16.70;53.30;;;;;;4993499;28;20453;-70
2022/04/29 08:24:20;;;;;;;1.00;1.00;;;17.00;53.60;;;;;;4993393;28;20501;-69
2022/04/29 08:26:46;;;;;;;1.00;1.00;;;17.00;53.50;;;;;;4993389;28;20863;-70
2022/04/29 08:29:13;;;;;;;1.10;1.10;;;17.00;53.30;;;;;;4994915;28;20829;-69
2022/04/29 08:31:40;;;;;;;1.00;1.00;;;17.30;53.60;;;;;;4997683;28;20445;-70
2022/04/29 08:34:07;;;;;;;1.23;1.13;;;17.50;53.50;;;;;;4996952;28;20889;-70
2022/04/29 08:36:34;;;;;;;1.20;1.20;;;17.80;52.80;;;;;;4997158;28;20547;-70
2022/04/29 08:39:01;;;;;;;1.30;1.20;;;18.10;53.50;;;;;;4997033;28;20496;-70
2022/04/29 08:41:29;;;;;;;1.13;1.03;;;18.60;51.40;;;;;;4996761;28;20948;-71
2022/04/29 08:43:57;;;;;;;1.10;1.10;;;18.70;53.00;;;;;;4996679;28;20875;-69
2022/04/29 08:46:24;;;;;;;0.90;0.90;;;19.10;51.00;;;;;;4997033;28;20452;-70
2022/04/29 08:48:51;;;;;;;0.90;0.90;;;19.10;49.50;;;;;;4996888;28;20445;-70
2022/04/29 08:51:19;;;;;;;1.00;1.00;;;19.20;50.80;;;;;;4996765;28;20455;-71
2022/04/29 08:53:48;;;;;;;0.90;0.90;;;19.00;49.80;;;;;;4996910;28;20547;-70
2022/04/29 08:59:03;;;;;;;0.90;0.90;;;19.30;48.70;;;;;;4996704;28;20472;-69
2022/04/29 09:01:31;;;;;;;0.80;0.80;;;19.20;47.70;;;;;;4996477;28;20896;-70
2022/04/29 09:03:57;;;;;;;0.93;0.93;;;19.30;47.60;;;;;;4996207;28;20572;-70
2022/04/29 09:06:24;;;;;;;0.80;0.80;;;19.10;47.40;;;;;;4996590;28;20445;-70
2022/04/29 09:08:51;;;;;;;0.80;0.80;;;18.70;45.40;;;;;;4996485;28;20495;-70
2022/04/29 09:11:23;;;;;;;0.80;0.80;;;18.50;47.40;;;;;;4996343;28;20491;-70
2022/04/29 09:13:50;;;;;;;0.70;0.70;;;18.50;48.40;;;;;;5099090;23;20456;-68
2022/04/29 09:16:18;;;;;;;0.80;0.80;;;18.70;47.70;;;;;;4996862;28;20864;-67
2022/04/29 09:18:46;;;;;;;0.93;0.80;;;18.80;48.50;;;;;;4996517;28;20530;-67
2022/04/29 09:21:15;;;;;;;0.80;0.80;;;19.00;47.10;;;;;;4996102;28;20453;-68
2022/04/29 09:23:44;;;;;;;0.90;0.90;;;19.30;48.50;;;;;;4996232;28;20445;-68
2022/04/29 09:26:20;;;;;;;0.87;0.87;;;19.30;46.50;;;;;;4995909;28;20495;-68
2022/04/29 09:28:49;;;;;;;0.80;0.80;;;19.40;45.40;;;;;;4996012;28;20479;-68
2022/04/29 09:31:17;;;;;;;0.63;0.63;;;19.20;44.60;;;;;;4995951;28;20449;-68
2022/04/29 09:33:53;;;;;;;0.77;0.77;;;19.10;45.70;;;;;;4995746;28;20830;-68
2022/04/29 09:36:22;;;;;;;0.70;0.70;;;19.10;45.40;;;;;;4995925;28;20859;-67
2022/04/29 09:41:57;;;;;;;0.70;0.70;;;19.00;47.30;;;;;;4954756;28;20568;-68
2022/04/29 09:44:27;;;;;;;0.80;0.80;;;19.20;47.60;;;;;;4954325;28;21085;-67
2022/04/29 09:46:56;;;;;;;0.80;0.70;;;19.40;46.80;;;;;;4974912;28;20479;-68
2022/04/29 09:49:27;;;;;;;1.63;0.80;;;19.40;47.50;;;;;;4995759;28;20534;-68
2022/04/29 09:51:54;;;;;;;0.77;0.77;;;19.40;45.20;;;;;;4995552;28;20516;-67
2022/04/29 09:54:24;;;;;;;0.80;0.80;;;19.30;45.80;;;;;;4995348;28;20543;-67
2022/04/29 09:57:09;;;;;;;1.03;0.80;;;19.30;45.10;;;;;;4995367;28;20449;-67
2022/04/29 09:59:39;;;;;;;0.80;0.80;;;19.30;45.80;;;;;;4995495;28;20429;-68
2022/04/29 10:02:09;;;;;;;0.73;0.73;;;18.90;45.20;;;;;;4995541;28;20469;-68
2022/04/29 10:04:39;;;;;;;0.80;0.80;;;19.00;45.40;;;;;;4996268;28;20968;-67
2022/04/29 10:07:08;;;;;;;0.80;0.80;;;19.10;46.20;;;;;;4995364;28;20453;-68
2022/04/29 10:09:38;;;;;;;0.70;0.70;;;19.20;47.70;;;;;;4994849;28;20473;-68
2022/04/29 10:12:10;;;;;;;0.83;0.83;;;19.30;46.10;;;;;;4994712;28;21051;-67
2022/04/29 10:14:38;;;;;;;0.80;0.80;;;19.40;46.40;;;;;;4994435;28;21070;-68
2022/04/29 10:22:43;;;;;;;0.73;0.70;;;18.90;45.60;;;;;;4995229;28;20409;-69
2022/04/29 10:25:12;;;;;;;0.70;0.70;;;19.00;46.10;;;;;;4995561;28;20472;-69
2022/04/29 10:27:39;;;;;;;0.70;0.70;;;19.10;45.20;;;;;;4995541;28;20453;-69
2022/04/29 10:30:07;;;;;;;0.83;0.83;;;19.20;46.90;;;;;;4995158;28;20461;-68
2022/04/29 10:33:03;;;;;;;0.70;0.70;;;19.30;45.60;;;;;;4994977;28;20464;-69
2022/04/29 10:35:50;;;;;;;0.70;0.70;;;19.40;46.10;;;;;;4994870;28;20579;-68
2022/04/29 10:38:18;;;;;;;0.70;0.70;;;19.30;45.10;;;;;;4994590;28;20453;-68
2022/04/29 10:40:48;;;;;;;0.70;0.70;;;19.30;46.50;;;;;;4995974;28;20448;-68
2022/04/29 10:43:18;;;;;;;0.70;0.70;;;19.30;45.70;;;;;;4996236;28;20553;-67
2022/04/29 10:46:16;;;;;;;0.67;0.60;;;19.60;46.40;;;;;;4994515;28;20465;-67
2022/04/29 10:48:44;;;;;;;0.70;0.70;;;19.70;45.60;;;;;;4994495;28;20555;-68
2022/04/29 10:51:12;;;;;;;0.63;0.60;;;19.90;43.80;;;;;;4993636;28;20507;-68
2022/04/29 10:53:41;;;;;;;0.90;0.70;;;19.90;42.70;;;;;;4994125;28;20924;-69
2022/04/29 10:56:36;;;;;;;0.70;0.70;;;20.10;44.60;;;;;;4993978;28;21034;-68
2022/04/29 10:59:22;;;;;;;0.90;0.70;;;20.40;44.30;;;;;;4989271;28;20460;-68
2022/04/29 11:01:50;;;;;;;0.70;0.70;;;20.30;42.80;;;;;;4994126;28;20887;-68
2022/04/29 11:04:45;;;;;;;0.80;0.77;;;20.00;42.40;;;;;;4994418;28;20465;-69
2022/04/29 11:07:35;;;;;;;0.70;0.70;;;19.90;43.10;;;;;;4994274;28;20532;-69
2022/04/29 11:10:02;;;;;;;0.70;0.70;;;20.40;44.00;;;;;;4994233;28;20489;-68
2022/04/29 11:12:30;;;;;;;0.67;0.60;;;20.70;43.30;;;;;;4994291;28;20449;-68
2022/04/29 11:15:07;;;;;;;0.60;0.60;;;20.90;41.30;;;;;;4994032;28;20533;-69
2022/04/29 11:17:36;;;;;;;0.70;0.70;;;20.90;43.40;;;;;;4994277;28;20441;-70
2022/04/29 11:20:18;;;;;;;0.83;0.80;;;20.80;43.00;;;;;;4994004;28;20869;-69
2022/04/29 11:25:56;;;;;;;0.70;0.70;;;20.40;42.30;;;;;;4993455;28;20520;-69
2022/04/29 11:28:23;;;;;;;0.70;0.70;;;20.20;43.10;;;;;;4993811;28;20532;-68
2022/04/29 11:30:51;;;;;;;0.87;0.87;;;20.10;42.80;;;;;;4993746;28;20452;-69
2022/04/29 11:33:24;;;;;;;0.70;0.70;;;20.00;43.60;;;;;;4993465;28;20445;-67
2022/04/29 11:36:00;;;;;;;0.63;0.60;;;20.10;44.00;;;;;;4993565;28;20489;-68
2022/04/29 11:38:27;;;;;;;0.73;0.70;;;20.40;42.30;;;;;;4994205;28;20441;-69
2022/04/29 11:40:53;;;;;;;0.87;0.80;;;20.30;42.40;;;;;;4993406;28;20453;-69
2022/04/29 11:43:23;;;;;;;0.70;0.70;;;20.10;42.50;;;;;;4993431;28;20507;-68
2022/04/29 11:46:01;;;;;;;0.70;0.70;;;20.20;44.30;;;;;;4993194;28;20476;-69
2022/04/29 11:48:27;;;;;;;0.60;0.60;;;20.30;42.20;;;;;;4993677;28;20595;-67
2022/04/29 11:50:57;;;;;;;0.70;0.63;;;20.30;42.30;;;;;;4993403;28;20453;-68
2022/04/29 11:53:24;;;;;;;0.63;0.60;;;20.20;42.00;;;;;;4992784;28;20972;-69
2022/04/29 11:55:51;;;;;;;0.73;0.70;;;20.20;43.70;;;;;;4992901;28;20867;-68
2022/04/29 11:58:19;;;;;;;0.80;0.80;;;20.00;43.50;;;;;;4993326;28;20449;-68
2022/04/29 12:00:50;;;;;;;1.10;0.73;;;19.90;44.50;;;;;;4993281;28;20460;-68
2022/04/29 12:03:20;;;;;;;0.70;0.70;;;20.00;42.90;;;;;;4991952;28;20773;-68
2022/04/29 12:05:47;;;;;;;0.70;0.70;;;19.90;43.40;;;;;;4993225;28;20476;-69
2022/04/29 12:08:16;;;;;;;0.70;0.70;;;20.20;43.70;;;;;;4992904;28;20507;-68
2022/04/29 12:10:44;;;;;;;0.90;0.90;;;20.50;42.90;;;;;;4993137;28;20801;-68
2022/04/29 12:13:11;;;;;;;0.70;0.70;;;20.40;42.60;;;;;;4992971;28;20539;-68
2022/04/29 12:15:41;;;;;;;1.20;0.70;;;20.40;42.90;;;;;;4992523;28;20539;-68
2022/04/29 12:18:10;;;;;;;0.80;0.80;;;20.40;43.40;;;;;;4992755;28;20906;-69
2022/04/29 12:20:38;;;;;;;0.70;0.70;;;20.60;42.70;;;;;;4992455;28;20870;-68
2022/04/29 12:23:12;;;;;;;0.60;0.60;;;20.60;42.90;;;;;;4993070;28;20441;-69
2022/04/29 12:25:45;;;;;;;0.60;0.60;;;20.40;42.60;;;;;;4993425;28;20503;-69
2022/04/29 12:28:16;;;;;;;0.93;0.80;;;20.50;44.00;;;;;;4993573;28;20545;-69
2022/04/29 12:36:31;;;;;;;0.70;0.60;;;21.30;42.70;;;;;;4993536;28;20785;-68
2022/04/29 12:39:05;;;;;;;0.70;0.60;;;21.60;42.20;;;;;;4993486;28;20602;-69
2022/04/29 12:41:33;;;;;;;0.70;0.70;;;21.40;41.70;;;;;;4993329;28;20430;-69
2022/04/29 12:44:08;;;;;;;0.80;0.70;;;21.50;41.20;;;;;;4993557;28;20479;-69
2022/04/29 12:46:35;;;;;;;0.70;0.70;;;21.60;42.70;;;;;;4993175;28;20448;-69
2022/04/29 12:49:02;;;;;;;1.00;0.60;;;21.50;41.40;;;;;;4993380;28;20898;-68
2022/04/29 12:51:31;;;;;;;0.70;0.70;;;21.50;41.80;;;;;;4994284;28;20457;-70
2022/04/29 12:53:59;;;;;;;0.77;0.77;;;21.50;41.10;;;;;;4993456;28;20473;-69
2022/04/29 12:56:28;;;;;;;0.80;0.80;;;21.20;41.50;;;;;;4993414;28;20527;-68
2022/04/29 12:58:57;;;;;;;0.80;0.80;;;21.10;41.70;;;;;;4993606;28;20518;-69
2022/04/29 13:01:24;;;;;;;0.70;0.70;;;21.10;42.30;;;;;;4993367;28;20467;-69
2022/04/29 13:03:52;;;;;;;0.80;0.80;;;20.90;42.50;;;;;;4993973;28;20472;-70
2022/04/29 13:06:20;;;;;;;0.90;0.90;;;21.20;42.60;;;;;;4993594;28;20941;-68
2022/04/29 13:08:52;;;;;;;0.70;0.70;;;21.20;41.40;;;;;;4993667;28;20495;-70
2022/04/29 13:11:19;;;;;;;0.80;0.80;;;21.20;40.40;;;;;;4993376;28;20445;-68
2022/04/29 13:13:46;;;;;;;0.80;0.80;;;21.50;43.10;;;;;;4992920;28;20944;-69
2022/04/29 13:16:14;;;;;;;0.80;0.80;;;21.70;41.40;;;;;;4996280;28;20879;-70
2022/04/29 13:18:41;;;;;;;0.73;0.73;;;21.90;41.80;;;;;;4996897;28;20457;-68
2022/04/29 13:21:08;;;;;;;0.90;0.80;;;21.70;40.40;;;;;;4996637;28;20967;-70
2022/04/29 13:23:36;;;;;;;0.70;0.70;;;21.30;41.00;;;;;;4996664;28;20550;-70
2022/04/29 13:26:03;;;;;;;0.80;0.80;;;21.00;41.50;;;;;;4996420;28;20944;-70
2022/04/29 13:28:31;;;;;;;0.80;0.80;;;21.00;42.60;;;;;;4996967;28;20449;-69
2022/04/29 13:30:58;;;;;;;0.70;0.70;;;20.70;42.50;;;;;;4996512;28;20453;-70
2022/04/29 13:33:26;;;;;;;0.70;0.70;;;20.70;42.90;;;;;;4996571;28;20526;-69
2022/04/29 13:35:53;;;;;;;0.70;0.70;;;20.70;43.10;;;;;;4996726;28;20481;-69
2022/04/29 13:38:20;;;;;;;0.80;0.80;;;21.10;42.30;;;;;;4996445;28;20460;-69
2022/04/29 13:40:47;;;;;;;0.70;0.70;;;21.30;42.60;;;;;;4996403;28;20477;-69
2022/04/29 13:43:13;;;;;;;0.70;0.70;;;21.30;40.80;;;;;;4996152;28;20461;-69
2022/04/29 13:45:41;;;;;;;0.80;0.80;;;21.30;42.00;;;;;;4996382;28;20829;-69
2022/04/29 13:48:08;;;;;;;0.80;0.70;;;21.80;42.10;;;;;;4996309;28;20493;-70
2022/04/29 13:50:37;;;;;;;0.70;0.70;;;21.80;40.10;;;;;;4996372;28;20444;-68
2022/04/29 13:53:11;;;;;;;0.70;0.70;;;22.00;41.10;;;;;;4996177;28;20861;-69
2022/04/29 13:55:40;;;;;;;0.97;0.97;;;21.80;41.60;;;;;;4996065;28;20488;-69
2022/04/29 13:58:08;;;;;;;0.80;0.80;;;21.40;42.10;;;;;;4996033;28;20531;-70
2022/04/29 14:00:35;;;;;;;1.07;1.00;;;20.90;42.60;;;;;;4995963;28;20484;-70
2022/04/29 14:03:02;;;;;;;0.80;0.80;;;20.90;42.30;;;;;;4995790;28;20913;-69
2022/04/29 14:05:29;;;;;;;0.70;0.70;;;21.00;43.50;;;;;;4996094;28;20524;-68
2022/04/29 14:07:58;;;;;;;2.30;0.90;;;21.00;42.80;;;;;;4995616;28;20826;-69
2022/04/29 14:10:25;;;;;;;0.70;0.70;;;20.80;42.30;;;;;;4995544;28;20941;-68
2022/04/29 14:12:52;;;;;;;1.00;1.00;;;20.70;42.50;;;;;;4995846;28;20449;-69
2022/04/29 14:15:19;;;;;;;0.80;0.80;;;20.80;41.70;;;;;;4995269;28;21054;-69
2022/04/29 14:17:45;;;;;;;0.87;0.80;;;20.90;42.10;;;;;;4996222;28;20453;-70
2022/04/29 14:20:13;;;;;;;0.80;0.80;;;20.90;42.50;;;;;;4995958;28;20970;-69
2022/04/29 14:22:41;;;;;;;0.90;0.80;;;20.90;42.40;;;;;;4995771;28;20831;-69
2022/04/29 14:25:11;;;;;;;0.70;0.70;;;20.90;42.00;;;;;;4995728;28;20469;-70
2022/04/29 14:27:38;;;;;;;0.70;0.70;;;21.20;41.70;;;;;;4994305;28;20970;-70
2022/04/29 14:30:06;;;;;;;0.80;0.80;;;21.30;41.80;;;;;;4995298;28;20971;-69
2022/04/29 14:32:34;;;;;;;0.70;0.60;;;21.40;42.30;;;;;;4996021;28;20445;-69
2022/04/29 14:35:01;;;;;;;0.80;0.80;;;21.10;40.90;;;;;;4994919;28;20564;-69
2022/04/29 14:37:29;;;;;;;0.80;0.80;;;21.30;41.80;;;;;;4994740;28;20579;-69
2022/04/29 14:39:56;;;;;;;0.80;0.80;;;21.30;41.10;;;;;;4995061;28;20814;-69
2022/04/29 14:42:24;;;;;;;0.87;0.87;;;21.30;41.00;;;;;;4995496;28;20453;-69
2022/04/29 14:44:50;;;;;;;0.70;0.70;;;21.50;39.60;;;;;;4994535;28;20984;-69
2022/04/29 14:47:17;;;;;;;0.73;0.70;;;21.60;40.50;;;;;;4994757;28;20501;-69
2022/04/29 14:49:44;;;;;;;0.70;0.70;;;21.70;41.50;;;;;;4994336;28;20863;-69
2022/04/29 14:52:11;;;;;;;1.10;0.90;;;21.80;41.00;;;;;;4994345;28;20909;-69
2022/04/29 14:54:40;;;;;;;0.67;0.67;;;22.20;40.40;;;;;;4994142;28;20935;-70
2022/04/29 14:57:08;;;;;;;0.80;0.80;;;22.10;39.50;;;;;;4994351;28;20481;-69
2022/04/29 14:59:36;;;;;;;0.70;0.70;;;21.90;39.70;;;;;;4994514;28;20832;-70
2022/04/29 15:02:03;;;;;;;0.70;0.70;;;21.80;39.80;;;;;;4994507;28;20927;-69
2022/04/29 15:04:31;;;;;;;0.80;0.80;;;21.60;40.50;;;;;;4994263;28;20893;-69
2022/04/29 15:06:58;;;;;;;0.70;0.70;;;21.60;40.90;;;;;;4994246;28;20449;-71
2022/04/29 15:17:39;;;;;;;0.70;0.70;;;21.30;40.20;;;;;;4996747;28;20523;-78
2022/04/29 15:20:07;;;;;;;1.10;0.70;;;21.20;40.30;;;;;;4995878;28;21011;-78
2022/04/29 15:22:35;;;;;;;0.73;0.73;;;21.30;39.80;;;;;;4995115;28;20453;-77
2022/04/29 15:25:02;;;;;;;0.70;0.70;;;21.50;40.10;;;;;;4994826;28;20499;-78
2022/04/29 15:27:29;;;;;;;0.70;0.70;;;21.90;40.30;;;;;;4994649;28;20480;-78
2022/04/29 15:29:57;;;;;;;0.70;0.70;;;22.10;40.30;;;;;;4995051;28;20988;-77
2022/04/29 15:32:24;;;;;;;0.63;0.60;;;22.30;40.30;;;;;;4995002;28;20527;-78
2022/04/29 15:34:51;;;;;;;0.70;0.70;;;22.10;39.80;;;;;;4994510;28;20473;-78
2022/04/29 15:37:19;;;;;;;0.70;0.70;;;21.70;39.40;;;;;;4994191;28;20480;-77
2022/04/29 15:39:45;;;;;;;0.70;0.70;;;21.60;39.10;;;;;;4994467;28;20446;-77
2022/04/29 15:42:12;;;;;;;0.90;0.90;;;21.20;39.80;;;;;;4994321;28;20444;-77
2022/04/29 15:44:40;;;;;;;0.77;0.77;;;21.00;40.10;;;;;;4994284;28;20472;-77
2022/04/29 15:47:08;;;;;;;0.80;0.80;;;21.20;39.90;;;;;;4994238;28;20445;-77
2022/04/29 15:49:35;;;;;;;0.60;0.60;;;21.20;40.00;;;;;;4994101;28;20449;-77
2022/04/29 15:52:02;;;;;;;0.70;0.70;;;20.80;40.90;;;;;;4994155;28;20511;-77
2022/04/29 15:54:29;;;;;;;0.97;0.80;;;20.60;40.20;;;;;;4994179;28;20464;-77
2022/04/29 15:56:56;;;;;;;1.20;0.70;;;20.80;41.40;;;;;;4994102;28;20484;-77
2022/04/29 15:59:23;;;;;;;0.70;0.70;;;20.90;40.10;;;;;;4994643;28;20451;-77
2022/04/29 16:01:49;;;;;;;0.70;0.70;;;21.00;40.60;;;;;;4993979;28;20448;-77
2022/04/29 16:04:17;;;;;;;0.70;0.70;;;21.10;40.20;;;;;;4993991;28;20469;-77
2022/04/29 16:06:44;;;;;;;0.70;0.70;;;21.10;39.70;;;;;;4993782;28;21002;-77
2022/04/29 16:09:11;;;;;;;0.70;0.60;;;21.10;40.00;;;;;;4993960;28;20547;-77
2022/04/29 16:11:38;;;;;;;0.70;0.60;;;21.30;40.10;;;;;;4993997;28;20445;-75
2022/04/29 16:14:04;;;;;;;0.70;0.63;;;21.50;40.00;;;;;;4993924;28;20455;-75
2022/04/29 16:16:31;;;;;;;0.70;0.60;;;21.50;39.90;;;;;;4993458;28;20571;-75
2022/04/29 16:21:44;;;;;;;0.80;0.80;;;21.30;39.40;;;;;;4993920;28;20460;-75
2022/04/29 16:26:55;;;;;;;0.70;0.70;;;21.40;40.00;;;;;;4993852;28;20404;-78
2022/04/29 16:29:23;;;;;;;0.70;0.60;;;21.50;40.50;;;;;;4993504;28;20948;-77
2022/04/29 16:31:54;;;;;;;0.63;0.60;;;21.60;40.70;;;;;;4993769;28;20456;-77
2022/04/29 16:34:21;;;;;;;0.60;0.60;;;21.70;40.10;;;;;;4993833;28;20508;-77
2022/04/29 16:36:49;;;;;;;0.80;0.70;;;21.70;40.20;;;;;;4993773;28;20480;-73
2022/04/29 16:39:16;;;;;;;0.83;0.83;;;21.70;40.60;;;;;;4993836;28;20464;-77
2022/04/29 16:41:44;;;;;;;0.80;0.80;;;21.60;40.10;;;;;;4993796;28;20489;-77